createdAt,value
2019-01-13T00:00:25.237Z,1006.82
2019-01-13T00:01:35.216Z,1006.82
2019-01-13T00:02:45.136Z,1006.82
2019-01-13T00:03:54.557Z,1006.79
2019-01-13T00:05:04.225Z,1006.76
2019-01-13T00:06:13.898Z,1006.77
2019-01-13T00:07:23.317Z,1006.81
2019-01-13T00:08:34.256Z,1006.78
2019-01-13T00:09:43.929Z,1006.8
2019-01-13T00:10:53.611Z,1006.77
2019-01-13T00:12:03.035Z,1006.86
2019-01-13T00:13:12.211Z,1006.88
2019-01-13T00:14:22.141Z,1006.91
2019-01-13T00:15:32.181Z,1006.9
2019-01-13T00:16:41.359Z,1006.85
2019-01-13T00:17:51.026Z,1006.8
2019-01-13T00:19:00.701Z,1006.92
2019-01-13T00:20:10.381Z,1006.89
2019-01-13T00:21:20.304Z,1006.83
2019-01-13T00:22:29.976Z,1006.91
2019-01-13T00:23:39.652Z,1006.82
2019-01-13T00:24:49.879Z,1006.92
2019-01-13T00:25:59.576Z,1006.88
2019-01-13T00:27:09.258Z,1006.78
2019-01-13T00:28:18.929Z,1006.8
2019-01-13T00:29:28.603Z,1006.81
2019-01-13T00:30:38.275Z,1006.83
2019-01-13T00:31:48.202Z,1006.83
2019-01-13T00:32:58.136Z,1006.83
2019-01-13T00:34:07.560Z,1006.81
2019-01-13T00:35:17.483Z,1006.75
2019-01-13T00:36:27.416Z,1006.83
2019-01-13T00:37:37.341Z,1006.83
2019-01-13T00:38:47.265Z,1006.78
2019-01-13T00:39:56.689Z,1006.77
2019-01-13T00:41:06.139Z,1006.8
2019-01-13T00:42:15.889Z,1006.78
2019-01-13T00:43:25.322Z,1006.74
2019-01-13T00:44:35.251Z,1006.73
2019-01-13T00:45:46.671Z,1006.77
2019-01-13T00:46:56.348Z,1006.71
2019-01-13T00:48:06.268Z,1006.69
2019-01-13T00:49:15.689Z,1006.73
2019-01-13T00:50:25.364Z,1006.69
2019-01-13T00:51:34.545Z,1006.67
2019-01-13T00:52:44.466Z,1006.64
2019-01-13T00:53:54.148Z,1006.62
2019-01-13T00:55:03.817Z,1006.63
2019-01-13T00:56:13.492Z,1006.65
2019-01-13T00:57:23.162Z,1006.63
2019-01-13T00:58:32.830Z,1006.73
2019-01-13T00:59:42.748Z,1006.68
2019-01-13T01:00:52.418Z,1006.58
2019-01-13T01:02:02.096Z,1006.63
2019-01-13T01:03:12.026Z,1006.54
2019-01-13T01:04:21.740Z,1006.63
2019-01-13T01:05:31.163Z,1006.6
2019-01-13T01:06:41.098Z,1006.62
2019-01-13T01:07:50.527Z,1006.61
2019-01-13T01:09:00.202Z,1006.57
2019-01-13T01:10:09.875Z,1006.58
2019-01-13T01:11:19.544Z,1006.62
2019-01-13T01:12:29.224Z,1006.58
2019-01-13T01:13:38.393Z,1006.55
2019-01-13T01:14:48.320Z,1006.66
2019-01-13T01:15:58.244Z,1006.63
2019-01-13T01:17:07.974Z,1006.61
2019-01-13T01:18:17.402Z,1006.63
2019-01-13T01:19:27.088Z,1006.58
2019-01-13T01:20:36.270Z,1006.63
2019-01-13T01:21:47.359Z,1006.62
2019-01-13T01:22:58.419Z,1006.56
2019-01-13T01:24:08.350Z,1006.47
2019-01-13T01:25:18.026Z,1006.5
2019-01-13T01:26:27.690Z,1006.53
2019-01-13T01:27:37.358Z,1006.65
2019-01-13T01:28:46.778Z,1006.58
2019-01-13T01:29:56.697Z,1006.65
2019-01-13T01:31:06.626Z,1006.59
2019-01-13T01:32:16.294Z,1006.55
2019-01-13T01:33:25.962Z,1006.53
2019-01-13T01:34:36.068Z,1006.49
2019-01-13T01:35:45.493Z,1006.45
2019-01-13T01:36:56.869Z,1006.45
2019-01-13T01:38:06.334Z,1006.42
2019-01-13T01:39:16.010Z,1006.38
2019-01-13T01:40:25.687Z,1006.42
2019-01-13T01:41:35.635Z,1006.43
2019-01-13T01:42:44.813Z,1006.4
2019-01-13T01:43:54.495Z,1006.4
2019-01-13T01:45:03.915Z,1006.4
2019-01-13T01:46:13.342Z,1006.42
2019-01-13T01:47:22.769Z,1006.45
2019-01-13T01:48:32.447Z,1006.45
2019-01-13T01:49:42.125Z,1006.41
2019-01-13T01:50:52.050Z,1006.34
2019-01-13T01:52:01.973Z,1006.38
2019-01-13T01:53:11.663Z,1006.35
2019-01-13T01:54:21.097Z,1006.41
2019-01-13T01:55:30.768Z,1006.39
2019-01-13T01:56:40.705Z,1006.42
2019-01-13T01:57:50.378Z,1006.36
2019-01-13T01:59:00.063Z,1006.36
2019-01-13T02:00:09.485Z,1006.35
2019-01-13T02:01:19.207Z,1006.39
2019-01-13T02:02:28.641Z,1006.3
2019-01-13T02:03:38.313Z,1006.34
2019-01-13T02:04:48.332Z,1006.31
2019-01-13T02:05:57.807Z,1006.3
2019-01-13T02:07:07.551Z,1006.34
2019-01-13T02:08:16.772Z,1006.26
2019-01-13T02:09:26.697Z,1006.18
2019-01-13T02:10:36.147Z,1006.19
2019-01-13T02:11:45.821Z,1006.17
2019-01-13T02:12:55.490Z,1006.17
2019-01-13T02:14:04.928Z,1006.13
2019-01-13T02:15:14.353Z,1006.17
2019-01-13T02:16:24.024Z,1006.11
2019-01-13T02:17:33.206Z,1006.16
2019-01-13T02:18:42.628Z,1006.1
2019-01-13T02:19:52.554Z,1006.09
2019-01-13T02:21:02.233Z,1006.02
2019-01-13T02:22:12.163Z,1006.07
2019-01-13T02:23:22.090Z,1006.08
2019-01-13T02:24:32.019Z,1006.12
2019-01-13T02:25:41.942Z,1006.17
2019-01-13T02:26:51.613Z,1006.13
2019-01-13T02:28:01.039Z,1006.17
2019-01-13T02:29:10.719Z,1006.15
2019-01-13T02:30:20.154Z,1006.21
2019-01-13T02:34:02.922Z,1006.22
2019-01-13T02:35:12.864Z,1006.22
2019-01-13T02:36:22.541Z,1006.22
2019-01-13T02:37:31.973Z,1006.13
2019-01-13T02:38:41.404Z,1006.13
2019-01-13T02:39:51.088Z,1006.16
2019-01-13T02:41:01.026Z,1006.17
2019-01-13T02:42:10.706Z,1006.19
2019-01-13T02:43:20.377Z,1006.19
2019-01-13T02:44:30.368Z,1006.17
2019-01-13T02:45:39.797Z,1006.13
2019-01-13T02:46:49.731Z,1006.15
2019-01-13T02:47:59.413Z,1006.13
2019-01-13T02:49:09.105Z,1006.12
2019-01-13T02:50:18.778Z,1006.16
2019-01-13T02:51:28.360Z,1006.09
2019-01-13T02:52:38.205Z,1006.09
2019-01-13T02:53:47.914Z,1006.12
2019-01-13T02:54:57.347Z,1006.11
2019-01-13T02:56:07.285Z,1006.08
2019-01-13T02:57:16.972Z,1006.1
2019-01-13T02:58:26.902Z,1006.08
2019-01-13T02:59:36.396Z,1006.04
2019-01-13T03:00:46.341Z,1005.99
2019-01-13T03:02:02.356Z,1005.92
2019-01-13T03:03:13.559Z,1005.97
2019-01-13T03:04:23.257Z,1006.02
2019-01-13T03:05:32.945Z,1006.07
2019-01-13T03:06:42.887Z,1006
2019-01-13T03:07:52.566Z,1005.96
2019-01-13T03:09:01.760Z,1005.96
2019-01-13T03:10:11.451Z,1005.94
2019-01-13T03:11:21.394Z,1005.94
2019-01-13T03:12:30.835Z,1005.93
2019-01-13T03:13:40.517Z,1005.92
2019-01-13T03:14:50.453Z,1005.97
2019-01-13T03:15:59.887Z,1005.91
2019-01-13T03:17:09.587Z,1006
2019-01-13T03:18:19.528Z,1005.97
2019-01-13T03:19:29.214Z,1006
2019-01-13T03:20:38.909Z,1006
2019-01-13T03:21:48.602Z,1005.94
2019-01-13T03:22:58.525Z,1005.97
2019-01-13T03:24:08.465Z,1005.96
2019-01-13T03:25:17.902Z,1005.95
2019-01-13T03:26:27.843Z,1005.95
2019-01-13T03:27:37.790Z,1005.89
2019-01-13T03:28:47.752Z,1005.89
2019-01-13T03:29:57.683Z,1005.85
2019-01-13T03:31:11.556Z,1005.92
2019-01-13T03:32:22.411Z,1005.77
2019-01-13T03:33:32.355Z,1005.78
2019-01-13T03:34:42.043Z,1005.74
2019-01-13T03:35:51.280Z,1005.77
2019-01-13T03:37:01.213Z,1005.71
2019-01-13T03:38:11.138Z,1005.74
2019-01-13T03:39:20.827Z,1005.6
2019-01-13T03:40:30.263Z,1005.66
2019-01-13T03:41:39.945Z,1005.56
2019-01-13T03:42:49.622Z,1005.53
2019-01-13T03:43:59.057Z,1005.53
2019-01-13T03:45:08.749Z,1005.51
2019-01-13T03:46:18.689Z,1005.57
2019-01-13T03:47:28.633Z,1005.57
2019-01-13T03:48:38.314Z,1005.64
2019-01-13T03:49:48.250Z,1005.56
2019-01-13T03:50:57.692Z,1005.58
2019-01-13T03:52:07.618Z,1005.57
2019-01-13T03:53:17.539Z,1005.51
2019-01-13T03:54:27.229Z,1005.5
2019-01-13T03:55:36.660Z,1005.46
2019-01-13T03:56:46.086Z,1005.45
2019-01-13T03:57:55.782Z,1005.41
2019-01-13T03:59:05.460Z,1005.44
2019-01-13T04:00:14.897Z,1005.37
2019-01-13T04:01:24.331Z,1005.36
2019-01-13T04:02:34.006Z,1005.28
2019-01-13T04:03:43.432Z,1005.27
2019-01-13T04:04:53.110Z,1005.29
2019-01-13T04:06:03.036Z,1005.3
2019-01-13T04:07:12.718Z,1005.21
2019-01-13T04:08:22.645Z,1005.23
2019-01-13T04:09:32.322Z,1005.27
2019-01-13T04:10:41.744Z,1005.16
2019-01-13T04:11:51.675Z,1005.15
2019-01-13T04:13:01.623Z,1005.01
2019-01-13T04:14:11.560Z,1005.03
2019-01-13T04:15:21.490Z,1004.98
2019-01-13T04:16:31.423Z,1004.96
2019-01-13T04:17:41.094Z,1004.87
2019-01-13T04:18:50.275Z,1004.92
2019-01-13T04:20:00.251Z,1004.87
2019-01-13T04:21:09.680Z,1004.91
2019-01-13T04:22:19.356Z,1004.89
2019-01-13T04:23:29.034Z,1004.9
2019-01-13T04:24:38.804Z,1004.87
2019-01-13T04:25:48.486Z,1004.75
2019-01-13T04:26:58.164Z,1004.77
2019-01-13T04:28:07.676Z,1004.72
2019-01-13T04:29:17.606Z,1004.74
2019-01-13T04:30:27.040Z,1004.8
2019-01-13T04:31:36.738Z,1004.84
2019-01-13T04:32:46.416Z,1004.81
2019-01-13T04:33:55.859Z,1004.79
2019-01-13T04:35:05.542Z,1004.75
2019-01-13T04:36:15.245Z,1004.8
2019-01-13T04:37:24.946Z,1004.74
2019-01-13T04:38:34.892Z,1004.75
2019-01-13T04:39:44.817Z,1004.85
2019-01-13T04:40:54.497Z,1004.65
2019-01-13T04:42:03.670Z,1004.57
2019-01-13T04:43:13.355Z,1004.66
2019-01-13T04:44:23.084Z,1004.62
2019-01-13T04:45:33.026Z,1004.72
2019-01-13T04:46:42.970Z,1004.62
2019-01-13T04:47:52.661Z,1004.53
2019-01-13T04:49:02.591Z,1004.54
2019-01-13T04:50:12.531Z,1004.49
2019-01-13T04:51:21.976Z,1004.53
2019-01-13T04:52:31.404Z,1004.52
2019-01-13T04:53:40.828Z,1004.56
2019-01-13T04:54:50.012Z,1004.55
2019-01-13T04:55:59.948Z,1004.56
2019-01-13T04:57:09.373Z,1004.48
2019-01-13T04:58:19.050Z,1004.45
2019-01-13T04:59:28.479Z,1004.38
2019-01-13T05:00:38.164Z,1004.33
2019-01-13T05:01:47.350Z,1004.31
2019-01-13T05:02:57.034Z,1004.22
2019-01-13T05:04:06.976Z,1004.28
2019-01-13T05:05:16.904Z,1004.26
2019-01-13T05:06:26.593Z,1004.22
2019-01-13T05:07:36.039Z,1004.16
2019-01-13T05:08:45.218Z,1004.16
2019-01-13T05:09:54.897Z,1004.13
2019-01-13T05:11:04.330Z,1004.09
2019-01-13T05:12:14.012Z,1004.18
2019-01-13T05:13:23.942Z,1004.1
2019-01-13T05:14:33.873Z,1004.05
2019-01-13T05:15:42.802Z,1004.02
2019-01-13T05:16:52.335Z,1003.98
2019-01-13T05:18:01.775Z,1004.02
2019-01-13T05:19:11.712Z,1004.01
2019-01-13T05:20:21.141Z,1004.01
2019-01-13T05:21:31.076Z,1003.99
2019-01-13T05:22:40.772Z,1003.96
2019-01-13T05:23:50.690Z,1003.9
2019-01-13T05:25:00.372Z,1003.92
2019-01-13T05:26:09.298Z,1003.88
2019-01-13T05:27:19.880Z,1003.88
2019-01-13T05:28:29.315Z,1003.85
2019-01-13T05:29:38.746Z,1003.79
2019-01-13T05:30:48.432Z,1003.84
2019-01-13T05:31:58.112Z,1003.77
2019-01-13T05:33:07.797Z,1003.71
2019-01-13T05:34:17.729Z,1003.7
2019-01-13T05:35:27.153Z,1003.77
2019-01-13T05:36:37.079Z,1003.84
2019-01-13T05:37:46.756Z,1003.72
2019-01-13T05:38:55.929Z,1003.7
2019-01-13T05:40:05.628Z,1003.64
2019-01-13T05:41:15.315Z,1003.71
2019-01-13T05:42:25.250Z,1003.63
2019-01-13T05:43:34.927Z,1003.68
2019-01-13T05:44:44.668Z,1003.64
2019-01-13T05:45:54.354Z,1003.59
2019-01-13T05:47:04.034Z,1003.6
2019-01-13T05:48:13.720Z,1003.62
2019-01-13T05:49:23.146Z,1003.55
2019-01-13T05:50:32.824Z,1003.54
2019-01-13T05:51:42.061Z,1003.54
2019-01-13T05:52:51.750Z,1003.54
2019-01-13T05:54:01.423Z,1003.49
2019-01-13T05:55:11.354Z,1003.55
2019-01-13T05:56:21.042Z,1003.52
2019-01-13T05:57:31.812Z,1003.48
2019-01-13T05:58:41.300Z,1003.46
2019-01-13T05:59:51.221Z,1003.42
2019-01-13T06:01:00.657Z,1003.42
2019-01-13T06:02:10.586Z,1003.42
2019-01-13T06:03:20.271Z,1003.39
2019-01-13T06:04:29.970Z,1003.39
2019-01-13T06:05:39.647Z,1003.31
2019-01-13T06:06:49.070Z,1003.26
2019-01-13T06:07:58.735Z,1003.28
2019-01-13T06:09:08.412Z,1003.21
2019-01-13T06:10:18.335Z,1003.26
2019-01-13T06:11:27.509Z,1003.24
2019-01-13T06:12:37.193Z,1003.24
2019-01-13T06:13:46.871Z,1003.2
2019-01-13T06:14:56.302Z,1003.22
2019-01-13T06:16:06.232Z,1003.23
2019-01-13T06:17:16.210Z,1003.22
2019-01-13T06:18:25.896Z,1003.19
2019-01-13T06:19:35.579Z,1003.19
2019-01-13T06:20:45.059Z,1003.16
2019-01-13T06:21:54.232Z,1003.13
2019-01-13T06:23:03.915Z,1003.08
2019-01-13T06:24:13.604Z,1003.03
2019-01-13T06:25:23.549Z,1003.04
2019-01-13T06:26:32.993Z,1003.02
2019-01-13T06:27:42.667Z,1002.97
2019-01-13T06:28:52.093Z,1002.93
2019-01-13T06:30:02.116Z,1002.92
2019-01-13T06:31:12.053Z,1002.81
2019-01-13T06:32:21.732Z,1002.83
2019-01-13T06:33:31.409Z,1002.99
2019-01-13T06:34:41.086Z,1002.94
2019-01-13T06:35:50.782Z,1002.89
2019-01-13T06:37:00.209Z,1002.86
2019-01-13T06:38:10.138Z,1002.85
2019-01-13T06:39:19.815Z,1002.82
2019-01-13T06:40:29.508Z,1002.76
2019-01-13T06:41:39.438Z,1002.64
2019-01-13T06:42:49.125Z,1002.56
2019-01-13T06:43:58.318Z,1002.55
2019-01-13T06:45:08.235Z,1002.58
2019-01-13T06:46:17.164Z,1002.49
2019-01-13T06:47:26.399Z,1002.5
2019-01-13T06:48:36.323Z,1002.38
2019-01-13T06:49:45.746Z,1002.36
2019-01-13T06:50:55.677Z,1002.4
2019-01-13T06:52:04.846Z,1002.37
2019-01-13T06:53:14.536Z,1002.32
2019-01-13T06:54:23.983Z,1002.32
2019-01-13T06:55:33.401Z,1002.25
2019-01-13T06:56:42.580Z,1002.36
2019-01-13T06:57:52.249Z,1002.29
2019-01-13T06:59:02.175Z,1002.25
2019-01-13T07:00:11.855Z,1002.26
2019-01-13T07:01:21.827Z,1002.2
2019-01-13T07:02:31.263Z,1002.16
2019-01-13T07:03:40.943Z,1002.08
2019-01-13T07:04:50.617Z,1002.05
2019-01-13T07:05:59.798Z,1002.01
2019-01-13T07:07:09.480Z,1001.97
2019-01-13T07:08:19.404Z,1001.87
2019-01-13T07:09:29.334Z,1001.88
2019-01-13T07:10:39.265Z,1001.83
2019-01-13T07:11:48.700Z,1001.88
2019-01-13T07:12:58.379Z,1001.89
2019-01-13T07:14:08.309Z,1001.81
2019-01-13T07:15:17.486Z,1001.76
2019-01-13T07:16:26.678Z,1001.76
2019-01-13T07:17:36.611Z,1001.75
2019-01-13T07:18:46.534Z,1001.64
2019-01-13T07:19:56.211Z,1001.65
2019-01-13T07:21:06.151Z,1001.68
2019-01-13T07:22:15.829Z,1001.6
2019-01-13T07:23:25.508Z,1001.62
2019-01-13T07:24:35.440Z,1001.62
2019-01-13T07:25:44.416Z,1001.58
2019-01-13T07:26:53.847Z,1001.52
2019-01-13T07:28:03.524Z,1001.54
2019-01-13T07:29:13.446Z,1001.48
2019-01-13T07:30:23.121Z,1001.57
2019-01-13T07:31:33.054Z,1001.52
2019-01-13T07:32:42.997Z,1001.49
2019-01-13T07:33:52.925Z,1001.5
2019-01-13T07:35:02.352Z,1001.49
2019-01-13T07:36:12.034Z,1001.48
2019-01-13T07:37:21.452Z,1001.47
2019-01-13T07:38:31.126Z,1001.45
2019-01-13T07:39:40.552Z,1001.44
2019-01-13T07:40:50.235Z,1001.36
2019-01-13T07:41:59.917Z,1001.34
2019-01-13T07:43:09.845Z,1001.27
2019-01-13T07:44:19.516Z,1001.28
2019-01-13T07:45:29.197Z,1001.28
2019-01-13T07:46:38.875Z,1001.26
2019-01-13T07:47:48.049Z,1001.26
2019-01-13T07:48:57.482Z,1001.13
2019-01-13T07:50:07.408Z,1001.18
2019-01-13T07:51:17.339Z,1001.08
2019-01-13T07:52:26.788Z,1001.13
2019-01-13T07:53:36.710Z,1001.11
2019-01-13T07:54:46.137Z,1000.98
2019-01-13T07:55:56.824Z,1001.01
2019-01-13T07:57:06.502Z,1000.95
2019-01-13T07:58:15.678Z,1000.99
2019-01-13T07:59:25.357Z,1000.98
2019-01-13T08:00:34.539Z,1000.96
2019-01-13T08:01:44.222Z,1000.9
2019-01-13T08:02:53.900Z,1000.88
2019-01-13T08:04:03.837Z,1000.9
2019-01-13T08:05:13.264Z,1000.88
2019-01-13T08:06:23.192Z,1000.84
2019-01-13T08:07:32.871Z,1000.84
2019-01-13T08:08:42.354Z,1000.84
2019-01-13T08:09:52.283Z,1000.82
2019-01-13T08:11:01.732Z,1000.76
2019-01-13T08:12:11.668Z,1000.74
2019-01-13T08:13:21.353Z,1000.68
2019-01-13T08:14:31.029Z,1000.64
2019-01-13T08:15:40.706Z,1000.6
2019-01-13T08:16:49.931Z,1000.62
2019-01-13T08:17:59.617Z,1000.54
2019-01-13T08:19:09.546Z,1000.45
2019-01-13T08:20:19.478Z,1000.41
2019-01-13T08:21:29.465Z,1000.47
2019-01-13T08:22:38.911Z,1000.41
2019-01-13T08:23:48.835Z,1000.42
2019-01-13T08:24:58.265Z,1000.4
2019-01-13T08:26:07.939Z,1000.4
2019-01-13T08:27:17.867Z,1000.42
2019-01-13T08:28:27.541Z,1000.35
2019-01-13T08:29:37.221Z,1000.39
2019-01-13T08:30:46.961Z,1000.46
2019-01-13T08:31:56.664Z,1000.32
2019-01-13T08:33:06.335Z,1000.34
2019-01-13T08:34:15.770Z,1000.31
2019-01-13T08:35:25.695Z,1000.32
2019-01-13T08:36:35.619Z,1000.36
2019-01-13T08:37:45.549Z,1000.33
2019-01-13T08:38:55.483Z,1000.28
2019-01-13T08:40:05.165Z,1000.25
2019-01-13T08:41:15.089Z,1000.23
2019-01-13T08:42:24.516Z,1000.25
2019-01-13T08:43:34.193Z,1000.16
2019-01-13T08:44:43.632Z,1000.27
2019-01-13T08:45:53.305Z,1000.2
2019-01-13T08:47:02.737Z,1000.22
2019-01-13T08:48:12.421Z,1000.13
2019-01-13T08:49:22.098Z,1000.1
2019-01-13T08:50:32.205Z,1000.01
2019-01-13T08:51:41.881Z,1000.05
2019-01-13T08:52:51.820Z,999.96
2019-01-13T08:54:01.749Z,1000.02
2019-01-13T08:55:11.195Z,1000
2019-01-13T08:56:20.624Z,1000.06
2019-01-13T08:57:30.054Z,1000.04
2019-01-13T08:58:39.737Z,999.97
2019-01-13T08:59:49.422Z,999.95
2019-01-13T09:00:59.105Z,999.93
2019-01-13T09:02:08.837Z,999.89
2019-01-13T09:03:18.273Z,999.83
2019-01-13T09:04:27.699Z,999.87
2019-01-13T09:05:37.379Z,999.81
2019-01-13T09:06:47.338Z,999.89
2019-01-13T09:07:57.276Z,999.83
2019-01-13T09:09:07.210Z,999.74
2019-01-13T09:10:16.889Z,999.73
2019-01-13T09:11:26.810Z,999.68
2019-01-13T09:12:36.480Z,999.72
2019-01-13T09:13:46.061Z,999.63
2019-01-13T09:14:55.731Z,999.62
2019-01-13T09:16:05.664Z,999.57
2019-01-13T09:17:15.347Z,999.56
2019-01-13T09:18:25.350Z,999.49
2019-01-13T09:19:35.639Z,999.5
2019-01-13T09:20:45.313Z,999.47
2019-01-13T09:21:54.995Z,999.47
2019-01-13T09:23:04.924Z,999.48
2019-01-13T09:24:14.355Z,999.54
2019-01-13T09:25:24.041Z,999.48
2019-01-13T09:26:33.974Z,999.47
2019-01-13T09:27:43.883Z,999.52
2019-01-13T09:28:53.339Z,999.42
2019-01-13T09:30:02.795Z,999.47
2019-01-13T09:31:11.990Z,999.45
2019-01-13T09:32:21.182Z,999.52
2019-01-13T09:33:30.379Z,999.44
2019-01-13T09:34:40.323Z,999.47
2019-01-13T09:35:50.013Z,999.41
2019-01-13T09:36:59.982Z,999.41
2019-01-13T09:38:09.918Z,999.4
2019-01-13T09:39:19.356Z,999.42
2019-01-13T09:40:28.783Z,999.4
2019-01-13T09:41:38.487Z,999.35
2019-01-13T09:42:48.221Z,999.37
2019-01-13T09:43:57.936Z,999.41
2019-01-13T09:45:07.865Z,999.28
2019-01-13T09:46:17.569Z,999.27
2019-01-13T09:47:27.510Z,999.31
2019-01-13T09:48:36.940Z,999.27
2019-01-13T09:49:49.931Z,999.27
2019-01-13T09:50:59.759Z,999.23
2019-01-13T09:52:09.267Z,999.2
2019-01-13T09:53:18.698Z,999.12
2019-01-13T09:54:28.384Z,999.13
2019-01-13T09:55:37.567Z,999.12
2019-01-13T09:56:47.256Z,999.17
2019-01-13T09:57:56.720Z,999.14
2019-01-13T09:59:06.650Z,999.14
2019-01-13T10:00:16.345Z,999.11
2019-01-13T10:01:26.277Z,999.17
2019-01-13T10:02:36.208Z,999.13
2019-01-13T10:03:51.700Z,999.1
2019-01-13T10:05:01.635Z,999.1
2019-01-13T10:06:11.074Z,999.01
2019-01-13T10:07:22.363Z,999.11
2019-01-13T10:08:31.802Z,999.03
2019-01-13T10:09:41.536Z,998.99
2019-01-13T10:10:50.961Z,998.92
2019-01-13T10:12:00.649Z,999
2019-01-13T10:13:10.680Z,998.94
2019-01-13T10:14:20.360Z,998.91
2019-01-13T10:15:29.546Z,998.93
2019-01-13T10:16:38.743Z,999.03
2019-01-13T10:17:48.175Z,998.89
2019-01-13T10:18:57.641Z,998.78
2019-01-13T10:20:07.318Z,998.82
2019-01-13T10:21:17.000Z,998.86
2019-01-13T10:22:26.696Z,998.83
2019-01-13T10:23:36.126Z,998.77
2019-01-13T10:24:46.052Z,998.8
2019-01-13T10:25:55.481Z,998.78
2019-01-13T10:27:05.161Z,998.82
2019-01-13T10:28:15.092Z,998.76
2019-01-13T10:29:24.777Z,998.72
2019-01-13T10:30:34.248Z,998.64
2019-01-13T10:31:43.425Z,998.75
2019-01-13T10:32:55.023Z,998.64
2019-01-13T10:34:05.047Z,998.7
2019-01-13T10:35:14.731Z,998.7
2019-01-13T10:36:24.407Z,998.6
2019-01-13T10:37:33.595Z,998.57
2019-01-13T10:38:43.275Z,998.55
2019-01-13T10:39:52.707Z,998.57
2019-01-13T10:41:02.412Z,998.47
2019-01-13T10:42:12.343Z,998.54
2019-01-13T10:43:21.774Z,998.56
2019-01-13T10:44:30.955Z,998.43
2019-01-13T10:45:40.636Z,998.51
2019-01-13T10:46:50.697Z,998.43
2019-01-13T10:48:00.212Z,998.42
2019-01-13T10:49:09.142Z,998.41
2019-01-13T10:50:19.123Z,998.41
2019-01-13T10:51:28.301Z,998.43
2019-01-13T10:52:37.989Z,998.48
2019-01-13T10:53:47.665Z,998.3
2019-01-13T10:54:57.389Z,998.32
2019-01-13T10:56:06.821Z,998.36
2019-01-13T10:57:16.516Z,998.32
2019-01-13T10:58:25.953Z,998.32
2019-01-13T10:59:35.632Z,998.26
2019-01-13T11:00:45.186Z,998.21
2019-01-13T11:01:54.865Z,998.29
2019-01-13T11:03:04.554Z,998.21
2019-01-13T11:04:13.986Z,998.25
2019-01-13T11:05:23.663Z,998.3
2019-01-13T11:06:33.093Z,998.18
2019-01-13T11:07:43.126Z,998.09
2019-01-13T11:08:52.803Z,998.15
2019-01-13T11:10:02.483Z,998.1
2019-01-13T11:11:12.168Z,998.14
2019-01-13T11:12:21.594Z,997.99
2019-01-13T11:13:30.785Z,998.01
2019-01-13T11:14:41.509Z,998.02
2019-01-13T11:15:51.201Z,998.06
2019-01-13T11:17:01.134Z,997.97
2019-01-13T11:18:10.572Z,997.95
2019-01-13T11:19:19.997Z,997.91
2019-01-13T11:20:29.174Z,997.84
2019-01-13T11:21:38.855Z,997.8
2019-01-13T11:22:48.787Z,997.8
2019-01-13T11:23:58.714Z,997.81
2019-01-13T11:25:09.797Z,997.7
2019-01-13T11:26:19.729Z,997.68
2019-01-13T11:27:29.756Z,997.71
2019-01-13T11:28:38.938Z,997.72
2019-01-13T11:29:48.359Z,997.67
2019-01-13T11:30:58.288Z,997.63
2019-01-13T11:32:07.720Z,997.59
2019-01-13T11:33:17.657Z,997.53
2019-01-13T11:34:27.338Z,997.6
2019-01-13T11:35:36.514Z,997.61
2019-01-13T11:36:46.204Z,997.56
2019-01-13T11:37:55.880Z,997.48
2019-01-13T11:39:05.866Z,997.46
2019-01-13T11:40:15.306Z,997.43
2019-01-13T11:41:24.516Z,997.48
2019-01-13T11:42:34.244Z,997.52
2019-01-13T11:43:43.930Z,997.44
2019-01-13T11:44:53.855Z,997.47
2019-01-13T11:46:03.537Z,997.49
2019-01-13T11:47:13.228Z,997.45
2019-01-13T11:48:23.156Z,997.33
2019-01-13T11:49:32.836Z,997.4
2019-01-13T11:50:42.334Z,997.42
2019-01-13T11:51:52.262Z,997.34
2019-01-13T11:53:02.193Z,997.27
2019-01-13T11:54:12.121Z,997.35
2019-01-13T11:55:21.797Z,997.23
2019-01-13T11:56:31.231Z,997.23
2019-01-13T11:57:41.222Z,997.27
2019-01-13T11:58:50.900Z,997.18
2019-01-13T12:00:00.346Z,997.2
2019-01-13T12:01:10.035Z,997.16
2019-01-13T12:02:19.467Z,997.12
2019-01-13T12:03:35.546Z,997.08
2019-01-13T12:04:45.238Z,997.11
2019-01-13T12:05:54.919Z,997.02
2019-01-13T12:07:04.601Z,997.03
2019-01-13T12:08:14.277Z,997.04
2019-01-13T12:09:23.466Z,997.01
2019-01-13T12:10:32.907Z,997.03
2019-01-13T12:11:42.598Z,997.1
2019-01-13T12:12:52.279Z,997.04
2019-01-13T12:14:01.956Z,997.03
2019-01-13T12:15:11.384Z,997.04
2019-01-13T12:16:20.582Z,997.05
2019-01-13T12:17:30.015Z,997.03
2019-01-13T12:18:40.553Z,996.99
2019-01-13T12:19:50.649Z,996.98
2019-01-13T12:21:00.094Z,996.95
2019-01-13T12:22:09.773Z,996.83
2019-01-13T12:23:19.197Z,996.94
2019-01-13T12:24:28.374Z,996.88
2019-01-13T12:25:38.050Z,996.81
2019-01-13T12:26:53.255Z,996.89
2019-01-13T12:28:03.182Z,996.84
2019-01-13T12:29:12.863Z,996.86
2019-01-13T12:30:22.045Z,996.82
2019-01-13T12:31:32.328Z,996.81
2019-01-13T12:32:42.083Z,996.79
2019-01-13T12:33:51.514Z,996.8
2019-01-13T12:35:01.193Z,996.68
2019-01-13T12:36:10.772Z,996.72
2019-01-13T12:37:20.515Z,996.78
2019-01-13T12:38:30.453Z,996.65
2019-01-13T12:39:40.137Z,996.66
2019-01-13T12:40:51.462Z,996.59
2019-01-13T12:42:00.891Z,996.56
2019-01-13T12:43:10.569Z,996.53
2019-01-13T12:44:20.244Z,996.52
2019-01-13T12:45:30.191Z,996.36
2019-01-13T12:46:40.139Z,996.37
2019-01-13T12:47:49.816Z,996.26
2019-01-13T12:48:59.500Z,996.28
2019-01-13T12:50:09.183Z,996.21
2019-01-13T12:51:18.871Z,996.22
2019-01-13T12:52:28.796Z,996.27
2019-01-13T12:53:38.730Z,996.28
2019-01-13T12:54:48.651Z,996.3
2019-01-13T12:55:59.216Z,996.39
2019-01-13T12:57:08.898Z,996.34
2019-01-13T12:58:18.076Z,996.21
2019-01-13T12:59:27.768Z,996.17
2019-01-13T13:00:37.447Z,996.28
2019-01-13T13:01:47.213Z,996.22
2019-01-13T13:02:57.606Z,996.24
2019-01-13T13:04:07.433Z,996.24
2019-01-13T13:05:16.876Z,996.26
2019-01-13T13:06:26.564Z,996.14
2019-01-13T13:07:36.000Z,996.27
2019-01-13T13:08:45.683Z,996.11
2019-01-13T13:09:55.114Z,995.98
2019-01-13T13:11:04.818Z,995.9
2019-01-13T13:12:14.245Z,995.96
2019-01-13T13:13:23.672Z,995.97
2019-01-13T13:14:33.357Z,995.95
2019-01-13T13:15:43.035Z,995.91
2019-01-13T13:16:53.831Z,995.93
2019-01-13T13:18:03.555Z,995.85
2019-01-13T13:19:12.990Z,995.85
2019-01-13T13:20:22.921Z,995.83
2019-01-13T13:21:32.854Z,995.77
2019-01-13T13:22:42.031Z,995.75
2019-01-13T13:23:51.960Z,995.69
2019-01-13T13:25:01.136Z,995.75
2019-01-13T13:26:10.814Z,995.69
2019-01-13T13:27:20.238Z,995.83
2019-01-13T13:28:30.171Z,995.58
2019-01-13T13:29:39.600Z,995.55
2019-01-13T13:30:49.273Z,995.73
2019-01-13T13:31:58.696Z,995.5
2019-01-13T13:33:08.377Z,995.5
2019-01-13T13:34:17.806Z,995.44
2019-01-13T13:35:27.262Z,995.42
2019-01-13T13:36:42.588Z,995.39
2019-01-13T13:37:52.007Z,995.55
2019-01-13T13:39:00.946Z,995.44
2019-01-13T13:40:10.389Z,995.43
2019-01-13T13:41:19.580Z,995.38
2019-01-13T13:42:29.014Z,995.44
2019-01-13T13:43:38.705Z,995.36
2019-01-13T13:44:48.628Z,995.33
2019-01-13T13:45:57.810Z,995.37
2019-01-13T13:47:07.267Z,995.39
2019-01-13T13:48:16.695Z,995.14
2019-01-13T13:49:26.633Z,995.06
2019-01-13T13:50:36.315Z,995
2019-01-13T13:51:45.739Z,995.09
2019-01-13T13:52:55.166Z,994.98
2019-01-13T13:54:04.595Z,994.96
2019-01-13T13:55:14.272Z,994.99
2019-01-13T13:56:23.710Z,994.93
2019-01-13T13:57:33.385Z,994.98
2019-01-13T13:58:42.826Z,994.97
2019-01-13T13:59:52.502Z,994.93
2019-01-13T14:01:02.829Z,994.83
2019-01-13T14:02:12.758Z,994.86
2019-01-13T14:03:22.436Z,994.87
2019-01-13T14:04:32.366Z,994.75
2019-01-13T14:05:41.797Z,994.85
2019-01-13T14:06:51.218Z,994.79
2019-01-13T14:08:01.142Z,994.88
2019-01-13T14:09:10.829Z,994.67
2019-01-13T14:10:20.007Z,994.69
2019-01-13T14:11:29.687Z,994.66
2019-01-13T14:12:40.636Z,994.71
2019-01-13T14:13:49.829Z,994.64
2019-01-13T14:14:59.760Z,994.6
2019-01-13T14:16:09.687Z,994.63
2019-01-13T14:17:18.861Z,994.67
2019-01-13T14:18:28.789Z,994.65